Nyk Diana — 3EOS4 — position and weather

sailwx.info

Track history (hours):
 
Tides and Currents Weather Stations Pressure Air Temp Water Temp Dewpoint Dewpoint Depression Visibility Wind Speed Wind Dir Waves Ship Positions

Nyk Diana

Last reported at 2018-Jul-17 23:49 UTC. Time now 2018-Jul-21 19:30 UTC.
Position N 39°43' W 127°51'.

Length 294 m; draft 11.1 m.

Type: Ship. MMSI: 372319000.

Date/timePositionNaut miles runAvg speedWind from/ knotsBaromVisibWave heightAir tempDewpointWater temp
2018-Jul-17 23:49N 39°43' W 127°51'715.1
2018-Jul-17 23:22N 39°40' W 127°42'514.9
2018-Jul-17 23:00N 39°38' W 127°36'714.9
2018-Jul-17 22:30N 39°35' W 127°27'714.6
2018-Jul-17 22:00N 39°31' W 127°19'914.1
2018-Jul-17 21:23N 39°28' W 127°08'514.0
2018-Jul-17 21:00N 39°26' W 127°02'714.2
2018-Jul-17 20:30N 39°23' W 126°54'1814.0
2018-Jul-17 19:12N 39°16' W 126°32'413.7
2018-Jul-17 18:55N 39°14' W 126°27'1913.8
2018-Jul-17 17:31N 39°06' W 126°05'013.6
2018-Jul-17 17:29N 39°06' W 126°04'714.0
2018-Jul-17 17:00N 39°03' W 125°56'713.8
2018-Jul-17 16:30N 39°01' W 125°48'713.6
2018-Jul-17 15:58N 38°58' W 125°40'613.8
2018-Jul-17 15:30N 38°55' W 125°32'713.6
2018-Jul-17 15:01N 38°53' W 125°24'3913.6
2018-Jul-17 12:11N 38°37' W 124°39'313.8
2018-Jul-17 12:00N 38°36' W 124°36'713.9
2018-Jul-17 11:30N 38°33' W 124°28'713.8
2018-Jul-17 11:00N 38°30' W 124°20'713.4
2018-Jul-17 10:30N 38°28' W 124°12'713.7
2018-Jul-17 10:01N 38°25' W 124°04'713.8
2018-Jul-17 09:30N 38°22' W 123°56'713.8
2018-Jul-17 09:00N 38°19' W 123°48'713.9
2018-Jul-17 08:30N 38°16' W 123°40'714.1
2018-Jul-17 08:01N 38°14' W 123°32'714.0
2018-Jul-17 07:30N 38°11' W 123°24'510.7
2018-Jul-17 07:00N 38°07' W 123°18'5 9.7
2018-Jul-17 06:30N 38°04' W 123°14'5 9.5
2018-Jul-17 06:00N 38°00' W 123°11'5 9.6
2018-Jul-17 05:31N 37°57' W 123°06'5 9.6
2018-Jul-17 05:01N 37°55' W 123°00'5 9.7
2018-Jul-17 04:30N 37°52' W 122°55'5 9.6
2018-Jul-17 04:01N 37°50' W 122°50'5 9.5
2018-Jul-17 03:30N 37°47' W 122°45'4 8.3
2018-Jul-17 03:00N 37°46' W 122°40'714.1
2018-Jul-17 02:30N 37°48' W 122°32'612.4
2018-Jul-17 02:00N 37°50' W 122°24'5 9.2
2018-Jul-17 01:30N 37°48' W 122°19'1 1.8
2018-Jul-17 01:00N 37°48' W 122°17'1 2.4
2018-Jul-17 00:29N 37°48' W 122°19'0 0.0
2018-Jul-16 23:29N 37°48' W 122°19'0 0.0
2018-Jul-16 22:59N 37°48' W 122°19'0 0.0
2018-Jul-16 22:29N 37°48' W 122°19'0 0.0
2018-Jul-16 21:59N 37°48' W 122°19'0 0.0
2018-Jul-16 21:29N 37°48' W 122°19'0 0.0
2018-Jul-16 20:59N 37°48' W 122°19'0 0.0
2018-Jul-16 20:29N 37°48' W 122°19'0 0.0
2018-Jul-16 19:59N 37°48' W 122°19'0 0.0
2018-Jul-16 19:29N 37°48' W 122°19'0 0.0
2018-Jul-16 18:59N 37°48' W 122°19'0 0.0
2018-Jul-16 18:29N 37°48' W 122°19'0 0.0
2018-Jul-16 17:59N 37°48' W 122°19'0 0.0
2018-Jul-16 17:26N 37°48' W 122°19'0 0.0
2018-Jul-16 16:59N 37°48' W 122°19'0 0.0
2018-Jul-16 16:29N 37°48' W 122°19'0 0.0
2018-Jul-16 15:59N 37°48' W 122°19'0 0.0
2018-Jul-16 15:29N 37°48' W 122°19'0 0.0
2018-Jul-16 14:59N 37°48' W 122°19'0 0.0
2018-Jul-16 14:29N 37°48' W 122°19'0 0.0
2018-Jul-16 13:59N 37°48' W 122°19'0 0.0
2018-Jul-16 13:29N 37°48' W 122°19'0 0.0
2018-Jul-16 12:59N 37°48' W 122°19'0 0.0
2018-Jul-16 12:29N 37°48' W 122°19'0 0.0
2018-Jul-16 11:59N 37°48' W 122°19'0 0.9
2018-Jul-16 11:31N 37°48' W 122°20'4 8.4
2018-Jul-16 11:00N 37°49' W 122°25'4 7.8
2018-Jul-16 10:31N 37°49' W 122°29'714.6
2018-Jul-16 10:00N 37°46' W 122°38'4 7.7
2018-Jul-16 09:30N 37°42' W 122°40'5 9.9
2018-Jul-16 09:00N 37°37' W 122°40'5 9.8
2018-Jul-16 08:30N 37°32' W 122°40'5 9.7
2018-Jul-16 08:00N 37°28' W 122°40'5 9.8
2018-Jul-16 07:30N 37°23' W 122°40'510.2
2018-Jul-16 07:00N 37°18' W 122°40'714.0
2018-Jul-16 06:30N 37°10' W 122°40'613.3
2018-Jul-16 06:00N 37°04' W 122°40'713.3
2018-Jul-16 05:30N 36°57' W 122°40'612.9
2018-Jul-16 05:00N 36°51' W 122°37'713.2
2018-Jul-16 04:30N 36°46' W 122°33'713.5
2018-Jul-16 04:00N 36°40' W 122°28'713.5
2018-Jul-16 03:30N 36°34' W 122°24'713.6
2018-Jul-16 03:00N 36°28' W 122°20'714.5
2018-Jul-16 02:31N 36°22' W 122°16'714.4
2018-Jul-16 02:01N 36°16' W 122°11'714.5
2018-Jul-16 01:31N 36°09' W 122°07'714.2
2018-Jul-16 01:01N 36°03' W 122°03'714.2
2018-Jul-16 00:31N 35°57' W 121°58'714.1
2018-Jul-16 00:00N 35°51' W 121°54'713.9
2018-Jul-15 23:30N 35°45' W 121°49'713.9
2018-Jul-15 23:00N 35°39' W 121°45'612.5
2018-Jul-15 22:30N 35°34' W 121°41'713.1
2018-Jul-15 22:00N 35°28' W 121°37'713.2
2018-Jul-15 21:30N 35°22' W 121°33'713.0
2018-Jul-15 21:00N 35°17' W 121°28'712.8
2018-Jul-15 20:30N 35°11' W 121°25'612.7
2018-Jul-15 20:00N 35°06' W 121°21'713.4
2018-Jul-15 19:30N 35°00' W 121°17'713.3
2018-Jul-15 19:00N 34°54' W 121°13'713.2
2018-Jul-15 18:30N 34°49' W 121°09'713.1
2018-Jul-15 18:00N 34°43' W 121°05'713.1
2018-Jul-15 17:30N 34°37' W 121°01'612.9
2018-Jul-15 17:00N 34°32' W 120°57'612.4
2018-Jul-15 16:30N 34°26' W 120°53'5 9.5
2018-Jul-15 16:00N 34°25' W 120°47'5 9.8
2018-Jul-15 15:30N 34°24' W 120°41'5 9.8
2018-Jul-15 15:00N 34°22' W 120°36'5 9.6
2018-Jul-15 14:30N 34°21' W 120°30'5 9.4
2018-Jul-15 14:00N 34°20' W 120°25'5 9.2
2018-Jul-15 13:29N 34°19' W 120°19'4 9.4
2018-Jul-15 13:00N 34°18' W 120°14'5 9.4
2018-Jul-15 12:30N 34°16' W 120°08'5 9.7
2018-Jul-15 12:00N 34°15' W 120°03'6 9.9
2018-Jul-15 11:27N 34°14' W 119°56'510.0
2018-Jul-15 10:58N 34°12' W 119°51'4 9.4
2018-Jul-15 10:30N 34°11' W 119°45'5 9.2
2018-Jul-15 09:59N 34°10' W 119°40'4 9.3
2018-Jul-15 09:30N 34°09' W 119°35'5 9.5
2018-Jul-15 09:00N 34°08' W 119°29'5 9.2
2018-Jul-15 08:30N 34°06' W 119°24'5 9.4
2018-Jul-15 08:00N 34°05' W 119°18'5 9.4
2018-Jul-15 07:30N 34°03' W 119°13'5 9.4
2018-Jul-15 07:00N 34°01' W 119°08'5 9.5
2018-Jul-15 06:30N 33°59' W 119°03'510.1
2018-Jul-15 06:00N 33°56' W 118°58'611.5
2018-Jul-15 05:30N 33°53' W 118°52'611.1
2018-Jul-15 05:00N 33°50' W 118°46'611.4
2018-Jul-15 04:30N 33°48' W 118°40'611.5
2018-Jul-15 04:00N 33°45' W 118°34'611.6
2018-Jul-15 03:30N 33°42' W 118°28'611.6
2018-Jul-15 03:00N 33°39' W 118°22'5 9.8
2018-Jul-15 02:30N 33°39' W 118°16'3 6.1
2018-Jul-15 02:00N 33°42' W 118°15'3 6.2
2018-Jul-15 01:30N 33°44' W 118°17'2 3.5
2018-Jul-15 01:00N 33°46' W 118°15'0 0.4
2018-Jul-15 00:30N 33°46' W 118°15'0 0.0
2018-Jul-15 00:00N 33°46' W 118°15'0 0.0
2018-Jul-14 23:30N 33°46' W 118°15'0 0.0
2018-Jul-14 23:00N 33°46' W 118°15'0 0.0
2018-Jul-14 22:30N 33°46' W 118°15'0 0.0
2018-Jul-14 22:00N 33°46' W 118°15'0 0.0
2018-Jul-14 21:30N 33°46' W 118°15'0 0.0
2018-Jul-14 21:00N 33°46' W 118°15'0 0.0
2018-Jul-14 20:30N 33°46' W 118°15'0 0.0
2018-Jul-14 20:00N 33°46' W 118°15'0 0.0
2018-Jul-14 19:30N 33°46' W 118°15'0 0.0
2018-Jul-14 19:00N 33°46' W 118°15'0 0.0
2018-Jul-14 18:30N 33°46' W 118°15'0 0.0
2018-Jul-14 18:00N 33°46' W 118°15'0 0.0
2018-Jul-14 17:30N 33°46' W 118°15'0 0.0
2018-Jul-14 17:00N 33°46' W 118°15'0 0.0
2018-Jul-14 16:30N 33°46' W 118°15'0 0.0
2018-Jul-14 16:00N 33°46' W 118°15'0 0.0
2018-Jul-14 15:30N 33°46' W 118°15'0 0.0
2018-Jul-14 15:00N 33°46' W 118°15'0 0.0
2018-Jul-14 14:00N 33°46' W 118°15'0 0.0
2018-Jul-14 13:30N 33°46' W 118°15'0 0.0
2018-Jul-14 13:00N 33°46' W 118°15'0 0.0
2018-Jul-14 12:30N 33°46' W 118°15'0 0.0
2018-Jul-14 12:00N 33°46' W 118°15'0 0.0
2018-Jul-14 11:30N 33°46' W 118°15'0 0.0
2018-Jul-14 11:00N 33°46' W 118°15'0 0.0
2018-Jul-14 10:30N 33°46' W 118°15'0 0.0
2018-Jul-14 10:00N 33°46' W 118°15'0 0.0
2018-Jul-14 09:30N 33°46' W 118°15'0 0.0
2018-Jul-14 09:00N 33°46' W 118°15'0 0.0
2018-Jul-14 08:30N 33°46' W 118°15'0 0.0
2018-Jul-14 08:00N 33°46' W 118°15'0 0.0
2018-Jul-14 07:30N 33°46' W 118°15'0 0.0
2018-Jul-14 07:00N 33°46' W 118°15'0 0.0
2018-Jul-14 06:30N 33°46' W 118°15'0 0.0
2018-Jul-14 06:00N 33°46' W 118°15'0 0.0
2018-Jul-14 05:30N 33°46' W 118°15'0 0.0
2018-Jul-14 05:00N 33°46' W 118°15'0 0.0
2018-Jul-14 04:30N 33°46' W 118°15'0 0.0
2018-Jul-14 04:00N 33°46' W 118°15'0 0.0
2018-Jul-14 03:30N 33°46' W 118°15'0 0.0
2018-Jul-14 03:00N 33°46' W 118°15'0 0.0
2018-Jul-14 02:30N 33°46' W 118°15'0 0.0
2018-Jul-14 02:00N 33°46' W 118°15'0 0.0
2018-Jul-14 01:30N 33°46' W 118°15'0 0.0
2018-Jul-14 00:57N 33°46' W 118°15'0 0.0
2018-Jul-14 00:30N 33°46' W 118°15'0 0.0
2018-Jul-14 00:00N 33°46' W 118°15'0 0.0
2018-Jul-13 23:30N 33°46' W 118°15'0 0.0
2018-Jul-13 22:57N 33°46' W 118°15'0 0.0
2018-Jul-13 22:30N 33°46' W 118°15'0 0.0
2018-Jul-13 22:00N 33°46' W 118°15'0 0.0
2018-Jul-13 21:30N 33°46' W 118°15'0 0.0
2018-Jul-13 21:00N 33°46' W 118°15'0 0.0
2018-Jul-13 20:30N 33°46' W 118°15'0 0.0
2018-Jul-13 20:00N 33°46' W 118°15'0 0.0
2018-Jul-13 19:30N 33°46' W 118°15'0 0.0
2018-Jul-13 19:00N 33°46' W 118°15'0 0.0
2018-Jul-13 18:30N 33°46' W 118°15'0 0.0
2018-Jul-13 18:00N 33°46' W 118°15'0 0.0
2018-Jul-13 17:30N 33°46' W 118°15'0 0.0
2018-Jul-13 17:00N 33°46' W 118°15'0 0.0
2018-Jul-13 16:30N 33°46' W 118°15'0 0.0
2018-Jul-13 16:00N 33°46' W 118°15'0 0.0
2018-Jul-13 15:30N 33°46' W 118°15'0 0.0
2018-Jul-13 15:00N 33°46' W 118°15'0 0.0
2018-Jul-13 14:00N 33°46' W 118°15'0 0.0
2018-Jul-13 13:30N 33°46' W 118°15'0 0.0
2018-Jul-13 13:00N 33°46' W 118°15'0 0.0
2018-Jul-13 12:30N 33°46' W 118°15'0 0.0
2018-Jul-13 12:00N 33°46' W 118°15'0 0.0
2018-Jul-13 11:30N 33°46' W 118°15'0 0.0
2018-Jul-13 11:00N 33°46' W 118°15'0 0.0
2018-Jul-13 10:30N 33°46' W 118°15'0 0.0
2018-Jul-13 10:00N 33°46' W 118°15'0 0.0
2018-Jul-13 09:30N 33°46' W 118°15'0 0.0
2018-Jul-13 09:00N 33°46' W 118°15'0 0.0
2018-Jul-13 08:30N 33°46' W 118°15'0 0.0
2018-Jul-13 08:00N 33°46' W 118°15'0 0.0
2018-Jul-13 07:30N 33°46' W 118°15'0 0.0
2018-Jul-13 07:00N 33°46' W 118°15'0 0.0
2018-Jul-13 06:30N 33°46' W 118°15'0 0.0
2018-Jul-13 06:00N 33°46' W 118°15'0 0.0
2018-Jul-13 05:30N 33°46' W 118°15'0 0.0
2018-Jul-13 05:00N 33°46' W 118°15'0 0.0
2018-Jul-13 04:30N 33°46' W 118°15'0 0.0
2018-Jul-13 04:00N 33°46' W 118°15'0 0.0
2018-Jul-13 03:30N 33°46' W 118°15'0 0.0
2018-Jul-13 03:00N 33°46' W 118°15'0 0.0
2018-Jul-13 02:30N 33°46' W 118°15'0 0.0
2018-Jul-13 02:00N 33°46' W 118°15'0 0.0
2018-Jul-13 01:30N 33°46' W 118°15'0 0.0
2018-Jul-13 01:00N 33°46' W 118°15'0 0.0
2018-Jul-13 00:30N 33°46' W 118°15'0 0.0
2018-Jul-13 00:00N 33°46' W 118°15'0 0.0
2018-Jul-12 23:30N 33°46' W 118°15'0 0.0
2018-Jul-12 23:00N 33°46' W 118°15'0 0.0
2018-Jul-12 22:30N 33°46' W 118°15'0 0.0
2018-Jul-12 22:00N 33°46' W 118°15'0 0.0
2018-Jul-12 21:30N 33°46' W 118°15'0 0.0
2018-Jul-12 21:00N 33°46' W 118°15'0 0.0
2018-Jul-12 20:30N 33°46' W 118°15'0 0.0
2018-Jul-12 20:00N 33°46' W 118°15'0 0.0
2018-Jul-12 19:30N 33°46' W 118°15'0 0.0
2018-Jul-12 19:00N 33°46' W 118°15'0 0.0
2018-Jul-12 18:30N 33°46' W 118°15'0 0.0
2018-Jul-12 18:00N 33°46' W 118°15'0 0.0
2018-Jul-12 17:30N 33°46' W 118°15'0 0.0
2018-Jul-12 17:00N 33°46' W 118°15'0 0.0
2018-Jul-12 16:30N 33°46' W 118°15'0 0.0
2018-Jul-12 16:00N 33°46' W 118°15'0 0.0
2018-Jul-12 15:30N 33°46' W 118°15'0 0.0
2018-Jul-12 15:00N 33°46' W 118°15'0 0.0
2018-Jul-12 14:30N 33°46' W 118°15'0 0.0
2018-Jul-12 14:00N 33°46' W 118°15'0 0.0
2018-Jul-12 13:30N 33°46' W 118°15'0 0.0
2018-Jul-12 13:00N 33°46' W 118°15'1 1.9
2018-Jul-12 12:31N 33°45' W 118°16'3 5.2
2018-Jul-12 12:00N 33°43' W 118°15'4 8.8
2018-Jul-12 11:31N 33°38' W 118°14'5 9.2
2018-Jul-12 11:00N 33°36' W 118°19'5 9.6
2018-Jul-12 10:30N 33°38' W 118°24'510.4
2018-Jul-12 10:00N 33°40' W 118°29'510.2
2018-Jul-12 09:30N 33°43' W 118°35'510.2
2018-Jul-12 09:01N 33°45' W 118°40'510.5
2018-Jul-12 08:30N 33°48' W 118°46'510.3
2018-Jul-12 08:00N 33°50' W 118°51'510.3
2018-Jul-12 07:30N 33°53' W 118°56'510.0
2018-Jul-12 07:00N 33°54' W 119°02'510.2
2018-Jul-12 06:30N 33°55' W 119°08'4 7.9
2018-Jul-12 06:00N 33°55' W 119°13'1 1.3
2018-Jul-12 05:30N 33°54' W 119°12'0 0.4
2018-Jul-12 05:00N 33°54' W 119°12'0 0.2
2018-Jul-12 04:30N 33°54' W 119°12'0 0.3
2018-Jul-12 04:00N 33°54' W 119°12'0 0.3
2018-Jul-12 03:30N 33°54' W 119°12'0 0.6
2018-Jul-12 03:00N 33°54' W 119°11'0 0.6
2018-Jul-12 02:30N 33°55' W 119°11'1 1.7
2018-Jul-12 02:00N 33°55' W 119°11'4 8.3
2018-Jul-12 01:30N 33°59' W 119°12'5 9.2
2018-Jul-12 01:00N 34°02' W 119°17'5 9.5
2018-Jul-12 00:30N 34°03' W 119°22'510.0
2018-Jul-12 00:00N 34°05' W 119°28'5 9.9
2018-Jul-11 23:30N 34°06' W 119°34'5 9.8
2018-Jul-11 23:00N 34°08' W 119°39'5 9.2
2018-Jul-11 22:30N 34°09' W 119°45'4 8.9
2018-Jul-11 22:00N 34°10' W 119°50'5 9.2
2018-Jul-11 21:30N 34°11' W 119°55'5 9.5
2018-Jul-11 20:58N 34°13' W 120°01'4 9.0
2018-Jul-11 20:30N 34°14' W 120°06'5 9.4
2018-Jul-11 19:59N 34°15' W 120°12'5 9.7
2018-Jul-11 19:30N 34°16' W 120°17'5 9.3
2018-Jul-11 19:00N 34°18' W 120°23'4 8.8
2018-Jul-11 18:30N 34°19' W 120°28'5 9.4
2018-Jul-11 18:00N 34°20' W 120°33'4 8.6
2018-Jul-11 17:30N 34°21' W 120°38'5 9.0
2018-Jul-11 17:00N 34°22' W 120°44'5 9.1
2018-Jul-11 16:30N 34°23' W 120°49'510.0
2018-Jul-11 15:59N 34°25' W 120°55'612.2
2018-Jul-11 15:30N 34°29' W 121°01'713.2
2018-Jul-11 15:00N 34°33' W 121°07'713.2
2018-Jul-11 14:30N 34°37' W 121°13'3 4.7
2018-Jul-11 13:58N 34°38' W 121°16'4 7.7
2018-Jul-11 13:30N 34°40' W 121°20'713.3
2018-Jul-11 13:00N 34°43' W 121°26'713.5
2018-Jul-11 12:30N 34°47' W 121°33'713.5
2018-Jul-11 12:00N 34°51' W 121°40'713.5
2018-Jul-11 11:30N 34°55' W 121°46'713.2
2018-Jul-11 11:00N 34°59' W 121°53'713.1
2018-Jul-11 10:30N 35°03' W 121°60'713.3
2018-Jul-11 10:01N 35°06' W 122°06'713.4
2018-Jul-11 09:30N 35°10' W 122°13'713.3
2018-Jul-11 09:00N 35°14' W 122°20'713.3
2018-Jul-11 08:31N 35°18' W 122°26'713.5
2018-Jul-11 08:00N 35°22' W 122°33'713.5
2018-Jul-11 07:30N 35°26' W 122°40'713.7
2018-Jul-11 07:00N 35°29' W 122°47'713.6
2018-Jul-11 06:30N 35°33' W 122°54'713.7
2018-Jul-11 06:00N 35°37' W 123°01'713.8
2018-Jul-11 05:30N 35°41' W 123°08'713.9
2018-Jul-11 05:00N 35°45' W 123°15'713.6
2018-Jul-11 04:30N 35°49' W 123°22'713.4
2018-Jul-11 04:00N 35°53' W 123°28'713.7
2018-Jul-11 03:30N 35°57' W 123°35'713.8
2018-Jul-11 02:59N 36°01' W 123°43'714.1
2018-Jul-11 02:30N 36°05' W 123°49'714.2
2018-Jul-11 02:00N 36°09' W 123°57'714.2
2018-Jul-11 01:30N 36°13' W 124°04'714.3
2018-Jul-11 00:59N 36°17' W 124°11'814.1
2018-Jul-11 00:23N 36°22' W 124°20'2113.6
2018-Jul-10 22:50N 36°34' W 124°42'516.2
2018-Jul-10 22:30N 36°37' W 124°47'1118.0
2018-Jul-10 21:55N 36°43' W 124°58'817.9
2018-Jul-10 21:30N 36°47' W 125°06'1318.0
2018-Jul-10 20:47N 36°54' W 125°19'517.5
2018-Jul-10 20:30N 36°57' W 125°24'1817.5
2018-Jul-10 19:27N 37°07' W 125°44'817.3
2018-Jul-10 19:00N 37°11' W 125°52'917.2
2018-Jul-10 18:28N 37°16' W 126°02'  
Track history (hours):
 
Tides and Currents Weather Stations Pressure Air Temp Water Temp Dewpoint Dewpoint Depression Visibility Wind Speed Wind Dir Waves Ship Positions

Nyk Diana

Last reported at 2018-Jul-17 23:49 UTC. Time now 2018-Jul-21 19:30 UTC.
Position N 39°43' W 127°51'.

Length 294 m; draft 11.1 m.

Type: Ship. MMSI: 372319000.

Date/timePositionNaut miles runAvg speedWind from/ knotsBaromVisibWave heightAir tempDewpointWater temp
2018-Jul-17 23:49N 39°43' W 127°51'715.1
2018-Jul-17 23:22N 39°40' W 127°42'514.9
2018-Jul-17 23:00N 39°38' W 127°36'714.9
2018-Jul-17 22:30N 39°35' W 127°27'714.6
2018-Jul-17 22:00N 39°31' W 127°19'914.1
2018-Jul-17 21:23N 39°28' W 127°08'514.0
2018-Jul-17 21:00N 39°26' W 127°02'714.2
2018-Jul-17 20:30N 39°23' W 126°54'1814.0
2018-Jul-17 19:12N 39°16' W 126°32'413.7
2018-Jul-17 18:55N 39°14' W 126°27'1913.8
2018-Jul-17 17:31N 39°06' W 126°05'013.6
2018-Jul-17 17:29N 39°06' W 126°04'714.0
2018-Jul-17 17:00N 39°03' W 125°56'713.8
2018-Jul-17 16:30N 39°01' W 125°48'713.6
2018-Jul-17 15:58N 38°58' W 125°40'613.8
2018-Jul-17 15:30N 38°55' W 125°32'713.6
2018-Jul-17 15:01N 38°53' W 125°24'3913.6
2018-Jul-17 12:11N 38°37' W 124°39'313.8
2018-Jul-17 12:00N 38°36' W 124°36'713.9
2018-Jul-17 11:30N 38°33' W 124°28'713.8
2018-Jul-17 11:00N 38°30' W 124°20'713.4
2018-Jul-17 10:30N 38°28' W 124°12'713.7
2018-Jul-17 10:01N 38°25' W 124°04'713.8
2018-Jul-17 09:30N 38°22' W 123°56'713.8
2018-Jul-17 09:00N 38°19' W 123°48'713.9
2018-Jul-17 08:30N 38°16' W 123°40'714.1
2018-Jul-17 08:01N 38°14' W 123°32'714.0
2018-Jul-17 07:30N 38°11' W 123°24'510.7
2018-Jul-17 07:00N 38°07' W 123°18'5 9.7
2018-Jul-17 06:30N 38°04' W 123°14'5 9.5
2018-Jul-17 06:00N 38°00' W 123°11'5 9.6
2018-Jul-17 05:31N 37°57' W 123°06'5 9.6
2018-Jul-17 05:01N 37°55' W 123°00'5 9.7
2018-Jul-17 04:30N 37°52' W 122°55'5 9.6
2018-Jul-17 04:01N 37°50' W 122°50'5 9.5
2018-Jul-17 03:30N 37°47' W 122°45'4 8.3
2018-Jul-17 03:00N 37°46' W 122°40'714.1
2018-Jul-17 02:30N 37°48' W 122°32'612.4
2018-Jul-17 02:00N 37°50' W 122°24'5 9.2
2018-Jul-17 01:30N 37°48' W 122°19'1 1.8
2018-Jul-17 01:00N 37°48' W 122°17'1 2.4
2018-Jul-17 00:29N 37°48' W 122°19'0 0.0
2018-Jul-16 23:29N 37°48' W 122°19'0 0.0
2018-Jul-16 22:59N 37°48' W 122°19'0 0.0
2018-Jul-16 22:29N 37°48' W 122°19'0 0.0
2018-Jul-16 21:59N 37°48' W 122°19'0 0.0
2018-Jul-16 21:29N 37°48' W 122°19'0 0.0
2018-Jul-16 20:59N 37°48' W 122°19'0 0.0
2018-Jul-16 20:29N 37°48' W 122°19'0 0.0
2018-Jul-16 19:59N 37°48' W 122°19'0 0.0
2018-Jul-16 19:29N 37°48' W 122°19'0 0.0
2018-Jul-16 18:59N 37°48' W 122°19'0 0.0
2018-Jul-16 18:29N 37°48' W 122°19'0 0.0
2018-Jul-16 17:59N 37°48' W 122°19'0 0.0
2018-Jul-16 17:26N 37°48' W 122°19'0 0.0
2018-Jul-16 16:59N 37°48' W 122°19'0 0.0
2018-Jul-16 16:29N 37°48' W 122°19'0 0.0
2018-Jul-16 15:59N 37°48' W 122°19'0 0.0
2018-Jul-16 15:29N 37°48' W 122°19'0 0.0
2018-Jul-16 14:59N 37°48' W 122°19'0 0.0
2018-Jul-16 14:29N 37°48' W 122°19'0 0.0
2018-Jul-16 13:59N 37°48' W 122°19'0 0.0
2018-Jul-16 13:29N 37°48' W 122°19'0 0.0
2018-Jul-16 12:59N 37°48' W 122°19'0 0.0
2018-Jul-16 12:29N 37°48' W 122°19'0 0.0
2018-Jul-16 11:59N 37°48' W 122°19'0 0.9
2018-Jul-16 11:31N 37°48' W 122°20'4 8.4
2018-Jul-16 11:00N 37°49' W 122°25'4 7.8
2018-Jul-16 10:31N 37°49' W 122°29'714.6
2018-Jul-16 10:00N 37°46' W 122°38'4 7.7
2018-Jul-16 09:30N 37°42' W 122°40'5 9.9
2018-Jul-16 09:00N 37°37' W 122°40'5 9.8
2018-Jul-16 08:30N 37°32' W 122°40'5 9.7
2018-Jul-16 08:00N 37°28' W 122°40'5 9.8
2018-Jul-16 07:30N 37°23' W 122°40'510.2
2018-Jul-16 07:00N 37°18' W 122°40'714.0
2018-Jul-16 06:30N 37°10' W 122°40'613.3
2018-Jul-16 06:00N 37°04' W 122°40'713.3
2018-Jul-16 05:30N 36°57' W 122°40'612.9
2018-Jul-16 05:00N 36°51' W 122°37'713.2
2018-Jul-16 04:30N 36°46' W 122°33'713.5
2018-Jul-16 04:00N 36°40' W 122°28'713.5
2018-Jul-16 03:30N 36°34' W 122°24'713.6
2018-Jul-16 03:00N 36°28' W 122°20'714.5
2018-Jul-16 02:31N 36°22' W 122°16'714.4
2018-Jul-16 02:01N 36°16' W 122°11'714.5
2018-Jul-16 01:31N 36°09' W 122°07'714.2
2018-Jul-16 01:01N 36°03' W 122°03'714.2
2018-Jul-16 00:31N 35°57' W 121°58'714.1
2018-Jul-16 00:00N 35°51' W 121°54'713.9
2018-Jul-15 23:30N 35°45' W 121°49'713.9
2018-Jul-15 23:00N 35°39' W 121°45'612.5
2018-Jul-15 22:30N 35°34' W 121°41'713.1
2018-Jul-15 22:00N 35°28' W 121°37'713.2
2018-Jul-15 21:30N 35°22' W 121°33'713.0
2018-Jul-15 21:00N 35°17' W 121°28'712.8
2018-Jul-15 20:30N 35°11' W 121°25'612.7
2018-Jul-15 20:00N 35°06' W 121°21'713.4
2018-Jul-15 19:30N 35°00' W 121°17'713.3
2018-Jul-15 19:00N 34°54' W 121°13'713.2
2018-Jul-15 18:30N 34°49' W 121°09'713.1
2018-Jul-15 18:00N 34°43' W 121°05'713.1
2018-Jul-15 17:30N 34°37' W 121°01'612.9
2018-Jul-15 17:00N 34°32' W 120°57'612.4
2018-Jul-15 16:30N 34°26' W 120°53'5 9.5
2018-Jul-15 16:00N 34°25' W 120°47'5 9.8
2018-Jul-15 15:30N 34°24' W 120°41'5 9.8
2018-Jul-15 15:00N 34°22' W 120°36'5 9.6
2018-Jul-15 14:30N 34°21' W 120°30'5 9.4
2018-Jul-15 14:00N 34°20' W 120°25'5 9.2
2018-Jul-15 13:29N 34°19' W 120°19'4 9.4
2018-Jul-15 13:00N 34°18' W 120°14'5 9.4
2018-Jul-15 12:30N 34°16' W 120°08'5 9.7
2018-Jul-15 12:00N 34°15' W 120°03'6 9.9
2018-Jul-15 11:27N 34°14' W 119°56'510.0
2018-Jul-15 10:58N 34°12' W 119°51'4 9.4
2018-Jul-15 10:30N 34°11' W 119°45'5 9.2
2018-Jul-15 09:59N 34°10' W 119°40'4 9.3
2018-Jul-15 09:30N 34°09' W 119°35'5 9.5
2018-Jul-15 09:00N 34°08' W 119°29'5 9.2
2018-Jul-15 08:30N 34°06' W 119°24'5 9.4
2018-Jul-15 08:00N 34°05' W 119°18'5 9.4
2018-Jul-15 07:30N 34°03' W 119°13'5 9.4
2018-Jul-15 07:00N 34°01' W 119°08'5 9.5
2018-Jul-15 06:30N 33°59' W 119°03'510.1
2018-Jul-15 06:00N 33°56' W 118°58'611.5
2018-Jul-15 05:30N 33°53' W 118°52'611.1
2018-Jul-15 05:00N 33°50' W 118°46'611.4
2018-Jul-15 04:30N 33°48' W 118°40'611.5
2018-Jul-15 04:00N 33°45' W 118°34'611.6
2018-Jul-15 03:30N 33°42' W 118°28'611.6
2018-Jul-15 03:00N 33°39' W 118°22'5 9.8
2018-Jul-15 02:30N 33°39' W 118°16'3 6.1
2018-Jul-15 02:00N 33°42' W 118°15'3 6.2
2018-Jul-15 01:30N 33°44' W 118°17'2 3.5
2018-Jul-15 01:00N 33°46' W 118°15'0 0.4
2018-Jul-15 00:30N 33°46' W 118°15'0 0.0
2018-Jul-15 00:00N 33°46' W 118°15'0 0.0
2018-Jul-14 23:30N 33°46' W 118°15'0 0.0
2018-Jul-14 23:00N 33°46' W 118°15'0 0.0
2018-Jul-14 22:30N 33°46' W 118°15'0 0.0
2018-Jul-14 22:00N 33°46' W 118°15'0 0.0
2018-Jul-14 21:30N 33°46' W 118°15'0 0.0
2018-Jul-14 21:00N 33°46' W 118°15'0 0.0
2018-Jul-14 20:30N 33°46' W 118°15'0 0.0
2018-Jul-14 20:00N 33°46' W 118°15'0 0.0
2018-Jul-14 19:30N 33°46' W 118°15'0 0.0
2018-Jul-14 19:00N 33°46' W 118°15'0 0.0
2018-Jul-14 18:30N 33°46' W 118°15'0 0.0
2018-Jul-14 18:00N 33°46' W 118°15'0 0.0
2018-Jul-14 17:30N 33°46' W 118°15'0 0.0
2018-Jul-14 17:00N 33°46' W 118°15'0 0.0
2018-Jul-14 16:30N 33°46' W 118°15'0 0.0
2018-Jul-14 16:00N 33°46' W 118°15'0 0.0
2018-Jul-14 15:30N 33°46' W 118°15'0 0.0
2018-Jul-14 15:00N 33°46' W 118°15'0 0.0
2018-Jul-14 14:00N 33°46' W 118°15'0 0.0
2018-Jul-14 13:30N 33°46' W 118°15'0 0.0
2018-Jul-14 13:00N 33°46' W 118°15'0 0.0
2018-Jul-14 12:30N 33°46' W 118°15'0 0.0
2018-Jul-14 12:00N 33°46' W 118°15'0 0.0
2018-Jul-14 11:30N 33°46' W 118°15'0 0.0
2018-Jul-14 11:00N 33°46' W 118°15'0 0.0
2018-Jul-14 10:30N 33°46' W 118°15'0 0.0
2018-Jul-14 10:00N 33°46' W 118°15'0 0.0
2018-Jul-14 09:30N 33°46' W 118°15'0 0.0
2018-Jul-14 09:00N 33°46' W 118°15'0 0.0
2018-Jul-14 08:30N 33°46' W 118°15'0 0.0
2018-Jul-14 08:00N 33°46' W 118°15'0 0.0
2018-Jul-14 07:30N 33°46' W 118°15'0 0.0
2018-Jul-14 07:00N 33°46' W 118°15'0 0.0
2018-Jul-14 06:30N 33°46' W 118°15'0 0.0
2018-Jul-14 06:00N 33°46' W 118°15'0 0.0
2018-Jul-14 05:30N 33°46' W 118°15'0 0.0
2018-Jul-14 05:00N 33°46' W 118°15'0 0.0
2018-Jul-14 04:30N 33°46' W 118°15'0 0.0
2018-Jul-14 04:00N 33°46' W 118°15'0 0.0
2018-Jul-14 03:30N 33°46' W 118°15'0 0.0
2018-Jul-14 03:00N 33°46' W 118°15'0 0.0
2018-Jul-14 02:30N 33°46' W 118°15'0 0.0
2018-Jul-14 02:00N 33°46' W 118°15'0 0.0
2018-Jul-14 01:30N 33°46' W 118°15'0 0.0
2018-Jul-14 00:57N 33°46' W 118°15'0 0.0
2018-Jul-14 00:30N 33°46' W 118°15'0 0.0
2018-Jul-14 00:00N 33°46' W 118°15'0 0.0
2018-Jul-13 23:30N 33°46' W 118°15'0 0.0
2018-Jul-13 22:57N 33°46' W 118°15'0 0.0
2018-Jul-13 22:30N 33°46' W 118°15'0 0.0
2018-Jul-13 22:00N 33°46' W 118°15'0 0.0
2018-Jul-13 21:30N 33°46' W 118°15'0 0.0
2018-Jul-13 21:00N 33°46' W 118°15'0 0.0
2018-Jul-13 20:30N 33°46' W 118°15'0 0.0
2018-Jul-13 20:00N 33°46' W 118°15'0 0.0
2018-Jul-13 19:30N 33°46' W 118°15'0 0.0
2018-Jul-13 19:00N 33°46' W 118°15'0 0.0
2018-Jul-13 18:30N 33°46' W 118°15'0 0.0
2018-Jul-13 18:00N 33°46' W 118°15'0 0.0
2018-Jul-13 17:30N 33°46' W 118°15'0 0.0
2018-Jul-13 17:00N 33°46' W 118°15'0 0.0
2018-Jul-13 16:30N 33°46' W 118°15'0 0.0
2018-Jul-13 16:00N 33°46' W 118°15'0 0.0
2018-Jul-13 15:30N 33°46' W 118°15'0 0.0
2018-Jul-13 15:00N 33°46' W 118°15'0 0.0
2018-Jul-13 14:00N 33°46' W 118°15'0 0.0
2018-Jul-13 13:30N 33°46' W 118°15'0 0.0
2018-Jul-13 13:00N 33°46' W 118°15'0 0.0
2018-Jul-13 12:30N 33°46' W 118°15'0 0.0
2018-Jul-13 12:00N 33°46' W 118°15'0 0.0
2018-Jul-13 11:30N 33°46' W 118°15'0 0.0
2018-Jul-13 11:00N 33°46' W 118°15'0 0.0
2018-Jul-13 10:30N 33°46' W 118°15'0 0.0
2018-Jul-13 10:00N 33°46' W 118°15'0 0.0
2018-Jul-13 09:30N 33°46' W 118°15'0 0.0
2018-Jul-13 09:00N 33°46' W 118°15'0 0.0
2018-Jul-13 08:30N 33°46' W 118°15'0 0.0
2018-Jul-13 08:00N 33°46' W 118°15'0 0.0
2018-Jul-13 07:30N 33°46' W 118°15'0 0.0
2018-Jul-13 07:00N 33°46' W 118°15'0 0.0
2018-Jul-13 06:30N 33°46' W 118°15'0 0.0
2018-Jul-13 06:00N 33°46' W 118°15'0 0.0
2018-Jul-13 05:30N 33°46' W 118°15'0 0.0
2018-Jul-13 05:00N 33°46' W 118°15'0 0.0
2018-Jul-13 04:30N 33°46' W 118°15'0 0.0
2018-Jul-13 04:00N 33°46' W 118°15'0 0.0
2018-Jul-13 03:30N 33°46' W 118°15'0 0.0
2018-Jul-13 03:00N 33°46' W 118°15'0 0.0
2018-Jul-13 02:30N 33°46' W 118°15'0 0.0
2018-Jul-13 02:00N 33°46' W 118°15'0 0.0
2018-Jul-13 01:30N 33°46' W 118°15'0 0.0
2018-Jul-13 01:00N 33°46' W 118°15'0 0.0
2018-Jul-13 00:30N 33°46' W 118°15'0 0.0
2018-Jul-13 00:00N 33°46' W 118°15'0 0.0
2018-Jul-12 23:30N 33°46' W 118°15'0 0.0
2018-Jul-12 23:00N 33°46' W 118°15'0 0.0
2018-Jul-12 22:30N 33°46' W 118°15'0 0.0
2018-Jul-12 22:00N 33°46' W 118°15'0 0.0
2018-Jul-12 21:30N 33°46' W 118°15'0 0.0
2018-Jul-12 21:00N 33°46' W 118°15'0 0.0
2018-Jul-12 20:30N 33°46' W 118°15'0 0.0
2018-Jul-12 20:00N 33°46' W 118°15'0 0.0
2018-Jul-12 19:30N 33°46' W 118°15'0 0.0
2018-Jul-12 19:00N 33°46' W 118°15'0 0.0
2018-Jul-12 18:30N 33°46' W 118°15'0 0.0
2018-Jul-12 18:00N 33°46' W 118°15'0 0.0
2018-Jul-12 17:30N 33°46' W 118°15'0 0.0
2018-Jul-12 17:00N 33°46' W 118°15'0 0.0
2018-Jul-12 16:30N 33°46' W 118°15'0 0.0
2018-Jul-12 16:00N 33°46' W 118°15'0 0.0
2018-Jul-12 15:30N 33°46' W 118°15'0 0.0
2018-Jul-12 15:00N 33°46' W 118°15'0 0.0
2018-Jul-12 14:30N 33°46' W 118°15'0 0.0
2018-Jul-12 14:00N 33°46' W 118°15'0 0.0
2018-Jul-12 13:30N 33°46' W 118°15'0 0.0
2018-Jul-12 13:00N 33°46' W 118°15'1 1.9
2018-Jul-12 12:31N 33°45' W 118°16'3 5.2
2018-Jul-12 12:00N 33°43' W 118°15'4 8.8
2018-Jul-12 11:31N 33°38' W 118°14'5 9.2
2018-Jul-12 11:00N 33°36' W 118°19'5 9.6
2018-Jul-12 10:30N 33°38' W 118°24'510.4
2018-Jul-12 10:00N 33°40' W 118°29'510.2
2018-Jul-12 09:30N 33°43' W 118°35'510.2
2018-Jul-12 09:01N 33°45' W 118°40'510.5
2018-Jul-12 08:30N 33°48' W 118°46'510.3
2018-Jul-12 08:00N 33°50' W 118°51'510.3
2018-Jul-12 07:30N 33°53' W 118°56'510.0
2018-Jul-12 07:00N 33°54' W 119°02'510.2
2018-Jul-12 06:30N 33°55' W 119°08'4 7.9
2018-Jul-12 06:00N 33°55' W 119°13'1 1.3
2018-Jul-12 05:30N 33°54' W 119°12'0 0.4
2018-Jul-12 05:00N 33°54' W 119°12'0 0.2
2018-Jul-12 04:30N 33°54' W 119°12'0 0.3
2018-Jul-12 04:00N 33°54' W 119°12'0 0.3
2018-Jul-12 03:30N 33°54' W 119°12'0 0.6
2018-Jul-12 03:00N 33°54' W 119°11'0 0.6
2018-Jul-12 02:30N 33°55' W 119°11'1 1.7
2018-Jul-12 02:00N 33°55' W 119°11'4 8.3
2018-Jul-12 01:30N 33°59' W 119°12'5 9.2
2018-Jul-12 01:00N 34°02' W 119°17'5 9.5
2018-Jul-12 00:30N 34°03' W 119°22'510.0
2018-Jul-12 00:00N 34°05' W 119°28'5 9.9
2018-Jul-11 23:30N 34°06' W 119°34'5 9.8
2018-Jul-11 23:00N 34°08' W 119°39'5 9.2
2018-Jul-11 22:30N 34°09' W 119°45'4 8.9
2018-Jul-11 22:00N 34°10' W 119°50'5 9.2
2018-Jul-11 21:30N 34°11' W 119°55'5 9.5
2018-Jul-11 20:58N 34°13' W 120°01'4 9.0
2018-Jul-11 20:30N 34°14' W 120°06'5 9.4
2018-Jul-11 19:59N 34°15' W 120°12'5 9.7
2018-Jul-11 19:30N 34°16' W 120°17'5 9.3
2018-Jul-11 19:00N 34°18' W 120°23'4 8.8
2018-Jul-11 18:30N 34°19' W 120°28'5 9.4
2018-Jul-11 18:00N 34°20' W 120°33'4 8.6
2018-Jul-11 17:30N 34°21' W 120°38'5 9.0
2018-Jul-11 17:00N 34°22' W 120°44'5 9.1
2018-Jul-11 16:30N 34°23' W 120°49'510.0
2018-Jul-11 15:59N 34°25' W 120°55'612.2
2018-Jul-11 15:30N 34°29' W 121°01'713.2
2018-Jul-11 15:00N 34°33' W 121°07'713.2
2018-Jul-11 14:30N 34°37' W 121°13'3 4.7
2018-Jul-11 13:58N 34°38' W 121°16'4 7.7
2018-Jul-11 13:30N 34°40' W 121°20'713.3
2018-Jul-11 13:00N 34°43' W 121°26'713.5
2018-Jul-11 12:30N 34°47' W 121°33'713.5
2018-Jul-11 12:00N 34°51' W 121°40'713.5
2018-Jul-11 11:30N 34°55' W 121°46'713.2
2018-Jul-11 11:00N 34°59' W 121°53'713.1
2018-Jul-11 10:30N 35°03' W 121°60'713.3
2018-Jul-11 10:01N 35°06' W 122°06'713.4
2018-Jul-11 09:30N 35°10' W 122°13'713.3
2018-Jul-11 09:00N 35°14' W 122°20'713.3
2018-Jul-11 08:31N 35°18' W 122°26'713.5
2018-Jul-11 08:00N 35°22' W 122°33'713.5
2018-Jul-11 07:30N 35°26' W 122°40'713.7
2018-Jul-11 07:00N 35°29' W 122°47'713.6
2018-Jul-11 06:30N 35°33' W 122°54'713.7
2018-Jul-11 06:00N 35°37' W 123°01'713.8
2018-Jul-11 05:30N 35°41' W 123°08'713.9
2018-Jul-11 05:00N 35°45' W 123°15'713.6
2018-Jul-11 04:30N 35°49' W 123°22'713.4
2018-Jul-11 04:00N 35°53' W 123°28'713.7
2018-Jul-11 03:30N 35°57' W 123°35'713.8
2018-Jul-11 02:59N 36°01' W 123°43'714.1
2018-Jul-11 02:30N 36°05' W 123°49'714.2
2018-Jul-11 02:00N 36°09' W 123°57'714.2
2018-Jul-11 01:30N 36°13' W 124°04'714.3
2018-Jul-11 00:59N 36°17' W 124°11'814.1
2018-Jul-11 00:23N 36°22' W 124°20'2113.6
2018-Jul-10 22:50N 36°34' W 124°42'516.2
2018-Jul-10 22:30N 36°37' W 124°47'1118.0
2018-Jul-10 21:55N 36°43' W 124°58'817.9
2018-Jul-10 21:30N 36°47' W 125°06'1318.0
2018-Jul-10 20:47N 36°54' W 125°19'517.5
2018-Jul-10 20:30N 36°57' W 125°24'1817.5
2018-Jul-10 19:27N 37°07' W 125°44'817.3
2018-Jul-10 19:00N 37°11' W 125°52'917.2
2018-Jul-10 18:28N 37°16' W 126°02'  

Dump ship's entire track history